Quick Links (Output Below):   Max & Min Temps   /   Climate Reports   /   Zone Forecasts
River Forecasts   /   Forestry Forecasts   /   Aviation Forecasts   /   Radars   /   Features

Terminal Aerodrome Forecast (Monticello)

Pick a Site:
Arkadelphia | El Dorado | Fayetteville | Fort Smith | Harrison | Highfill | Hot Springs | Jonesboro
Little Rock | Monticello | Mountain Home | Pine Bluff | Texarkana
 Forecast 

KLLQ 312339Z 0100/0124 22006KT P6SM SCT035 OVC050
     FM010300 22004KT P6SM OVC035
     FM010900 24003KT 5SM BR OVC025
     FM011500 19007KT P6SM OVC040=


 Latest METARs (Observations) 
How to Decode METARs
NO CURRENT OBSERVATIONS

***** Today's Observations (Above) *****


23Z KLLQ 312253Z AUTO 22007KT 10SM FEW038 SCT049 OVC060 26/16 A2991
         RMK AO2 SLP125 T02560156
         
22Z KLLQ 312153Z AUTO 20009KT 10SM BKN040 OVC050 26/16 A2991 RMK AO2
         SLP126 T02610161
         
21Z KLLQ 312053Z AUTO 22011G18KT 10SM FEW041 BKN050 BKN065 27/16 A2992
         RMK AO2 LTG DSNT NE AND E SLP128 T02670161 56025
         
20Z KLLQ 311953Z AUTO 22012G19KT 10SM SCT044 BKN060 27/16 A2993 RMK
         AO2 LTG DSNT N AND NE SLP132 T02720161
         
19Z KLLQ 311853Z AUTO 22009KT 10SM SCT038 BKN080 27/16 A2996 RMK AO2
         SLP141 T02670161
         
18Z KLLQ 311753Z AUTO 23008G17KT 10SM CLR 26/16 A2999 RMK AO2 SLP153
         T02610161 10261 20178 58016
         
17Z KLLQ 311653Z AUTO 22014G17KT 10SM FEW038 26/16 A3001 RMK AO2
         SLP161 T02560161
         
16Z KLLQ 311553Z AUTO 24009KT 10SM FEW047 BKN060 23/16 A3004 RMK AO2
         SLP169 T02330161
         
15Z KLLQ 311453Z AUTO 24010G15KT 10SM CLR 22/16 A3004 RMK AO2 SLP170
         T02170161 51007
         
14Z KLLQ 311353Z AUTO 22007KT 10SM BKN060 19/16 A3004 RMK AO2 SLP169
         T01940156
         
***** Yesterday's Observations (Above) *****


Back to Main Page
http://www.srh.noaa.gov/lzk/qfcst.php

USA.gov is the U.S. government's official web portal to all federal, state and local government web resources and services.